Time;durP1;ratioP1;P1;durP2;ratioP2;P2;SDS_P1;SDS_P2;PMS_P1;PMS_P2;Temp;Humidity;BMP_temperature;BMP_pressure;BME280_temperature;BME280_humidity;BME280_pressure;Samples;Min_cycle;Max_cycle;Signal;HPM_P1;HPM_P2
2023/01/01 00:01:58;;;;;;;47.05;35.70;;;13.10;99.90;;;;;;5059153;28;20037;-48
2023/01/01 00:04:25;;;;;;;54.67;41.38;;;13.00;99.90;;;;;;5062067;28;20659;-47
2023/01/01 00:06:51;;;;;;;50.13;35.92;;;13.00;99.90;;;;;;5061663;28;20115;-48
2023/01/01 00:12:01;;;;;;;43.88;35.58;;;13.00;99.90;;;;;;5058425;28;20044;-48
2023/01/01 00:14:27;;;;;;;43.28;31.63;;;13.10;99.90;;;;;;5060235;28;20052;-50
2023/01/01 00:16:56;;;;;;;43.95;32.83;;;13.10;99.90;;;;;;5059217;28;20032;-52
2023/01/01 00:19:21;;;;;;;41.42;32.08;;;13.00;99.90;;;;;;5059915;28;20374;-49
2023/01/01 00:21:47;;;;;;;47.72;31.73;;;13.00;99.90;;;;;;5062496;28;20036;-52
2023/01/01 00:24:13;;;;;;;39.00;29.88;;;13.00;99.90;;;;;;5059341;28;20389;-48
2023/01/01 00:26:38;;;;;;;49.50;33.67;;;13.00;99.90;;;;;;5058397;28;20458;-51
2023/01/01 00:29:04;;;;;;;39.10;29.55;;;13.10;99.90;;;;;;5059033;28;20392;-51
2023/01/01 00:31:30;;;;;;;44.28;33.00;;;13.00;99.90;;;;;;5059801;28;20060;-48
2023/01/01 00:33:57;;;;;;;44.33;33.70;;;13.10;99.90;;;;;;5058789;28;20044;-50
2023/01/01 00:36:25;;;;;;;41.17;31.80;;;13.10;99.90;;;;;;5060100;28;20036;-51
2023/01/01 00:38:50;;;;;;;41.00;30.90;;;13.20;99.90;;;;;;5060024;28;20032;-50
2023/01/01 00:41:17;;;;;;;41.83;31.67;;;13.10;99.90;;;;;;5059471;28;20036;-50
2023/01/01 00:43:43;;;;;;;45.03;34.08;;;13.20;99.90;;;;;;5059350;28;20514;-47
2023/01/01 00:46:09;;;;;;;42.97;33.22;;;13.10;99.90;;;;;;5057625;28;20036;-49
2023/01/01 00:48:35;;;;;;;43.60;31.25;;;13.10;99.90;;;;;;5059650;28;20047;-47
2023/01/01 00:51:02;;;;;;;42.20;29.73;;;13.20;99.90;;;;;;5060240;28;20484;-47
2023/01/01 00:53:28;;;;;;;42.63;32.53;;;13.20;99.90;;;;;;5059148;28;20044;-51
2023/01/01 00:55:55;;;;;;;43.00;29.10;;;13.20;99.90;;;;;;5061197;28;20032;-50
2023/01/01 00:58:22;;;;;;;44.88;32.78;;;13.20;99.90;;;;;;5058395;28;20036;-48
2023/01/01 01:00:49;;;;;;;45.67;32.55;;;13.20;99.90;;;;;;5058288;28;20028;-50
2023/01/01 01:03:26;;;;;;;41.72;30.23;;;13.20;99.90;;;;;;5059148;28;20149;-51
2023/01/01 01:06:01;;;;;;;42.40;30.90;;;13.20;99.90;;;;;;5059298;28;20048;-51
2023/01/01 01:08:28;;;;;;;42.80;32.15;;;13.20;99.90;;;;;;5059681;28;20036;-50
2023/01/01 01:10:55;;;;;;;40.97;31.38;;;13.20;99.90;;;;;;5058199;28;20036;-50
2023/01/01 01:13:20;;;;;;;39.47;30.27;;;13.20;99.90;;;;;;5060970;28;20045;-52
2023/01/01 01:15:47;;;;;;;36.92;29.48;;;13.20;99.90;;;;;;5060595;28;20040;-49
2023/01/01 01:18:12;;;;;;;37.85;27.10;;;13.30;99.90;;;;;;5060434;28;20036;-50
2023/01/01 01:20:38;;;;;;;37.78;28.90;;;13.30;99.90;;;;;;5060174;28;20037;-50
2023/01/01 01:23:04;;;;;;;36.00;27.13;;;13.20;99.90;;;;;;5061127;28;20028;-48
2023/01/01 01:25:30;;;;;;;40.10;27.50;;;13.20;99.90;;;;;;5059603;28;20614;-51
2023/01/01 01:27:56;;;;;;;35.70;26.30;;;13.20;99.90;;;;;;5059685;28;20044;-49
2023/01/01 01:30:21;;;;;;;40.50;28.15;;;13.20;99.90;;;;;;5060605;28;20140;-51
2023/01/01 01:32:47;;;;;;;33.40;25.30;;;13.10;99.90;;;;;;5059261;28;20044;-49
2023/01/01 01:35:13;;;;;;;40.38;25.13;;;13.10;99.90;;;;;;5061289;28;20032;-53
2023/01/01 01:37:38;;;;;;;37.28;23.35;;;13.10;99.90;;;;;;5060152;28;20029;-48
2023/01/01 01:40:05;;;;;;;28.20;20.02;;;13.10;99.90;;;;;;5059036;28;20121;-48
2023/01/01 01:42:31;;;;;;;29.98;23.15;;;13.20;99.90;;;;;;5058799;28;20496;-48
2023/01/01 01:45:00;;;;;;;30.85;19.45;;;13.10;99.90;;;;;;5059308;28;20079;-50
2023/01/01 01:47:46;;;;;;;31.55;19.45;;;13.10;99.90;;;;;;5059585;28;20491;-51
2023/01/01 01:50:35;;;;;;;29.27;19.80;;;13.10;99.90;;;;;;5059665;28;20036;-47
2023/01/01 01:53:07;;;;;;;30.90;20.08;;;13.10;99.90;;;;;;5058517;28;21289;-51
2023/01/01 01:55:36;;;;;;;30.35;18.10;;;13.00;99.90;;;;;;5060323;28;20579;-49
2023/01/01 01:58:03;;;;;;;29.08;19.52;;;13.00;99.90;;;;;;5059425;28;20435;-51
2023/01/01 02:00:29;;;;;;;32.15;20.30;;;13.00;99.90;;;;;;5061689;28;20471;-52
2023/01/01 02:02:58;;;;;;;28.25;19.23;;;12.90;99.90;;;;;;5060298;28;20037;-47
2023/01/01 02:05:24;;;;;;;26.40;16.52;;;12.90;99.90;;;;;;5059781;28;22733;-53
2023/01/01 02:07:52;;;;;;;24.02;16.15;;;12.90;99.90;;;;;;5060401;28;20551;-48
2023/01/01 02:10:18;;;;;;;24.15;14.40;;;12.90;99.90;;;;;;5059432;28;20028;-50
2023/01/01 02:12:44;;;;;;;25.27;13.98;;;13.00;99.90;;;;;;5058770;28;20123;-49
2023/01/01 02:15:10;;;;;;;23.30;14.13;;;12.90;99.90;;;;;;5061364;28;20479;-48
2023/01/01 02:17:59;;;;;;;21.80;12.25;;;12.90;99.90;;;;;;5058181;28;20413;-50
2023/01/01 02:20:46;;;;;;;22.17;13.40;;;12.90;99.90;;;;;;5060365;28;20540;-48
2023/01/01 02:23:18;;;;;;;19.10;12.65;;;12.90;99.90;;;;;;5059566;28;20048;-52
2023/01/01 02:26:18;;;;;;;24.05;11.57;;;12.90;99.90;;;;;;5060087;28;20052;-51
2023/01/01 02:29:06;;;;;;;22.67;11.48;;;12.90;99.90;;;;;;5054224;28;20515;-51
2023/01/01 02:31:41;;;;;;;19.77;10.10;;;12.90;99.90;;;;;;5060375;28;20033;-48
2023/01/01 02:34:11;;;;;;;18.67;10.35;;;13.00;99.90;;;;;;5059230;28;20040;-48
2023/01/01 02:36:43;;;;;;;21.55;11.00;;;13.00;99.90;;;;;;5059925;28;20044;-52
2023/01/01 02:39:12;;;;;;;20.08;11.15;;;13.00;99.90;;;;;;5061416;28;20351;-49
2023/01/01 02:41:44;;;;;;;17.90;9.43;;;12.90;99.90;;;;;;5063785;28;20043;-50
2023/01/01 02:44:10;;;;;;;14.05;8.15;;;13.00;99.90;;;;;;5063084;28;20554;-50
2023/01/01 02:46:36;;;;;;;13.35;7.53;;;13.10;99.90;;;;;;5063201;28;20368;-50
2023/01/01 02:49:03;;;;;;;16.52;6.57;;;13.20;99.90;;;;;;5062041;28;20032;-48
2023/01/01 02:51:58;;;;;;;19.00;6.53;;;13.20;99.90;;;;;;5065068;28;20028;-49
2023/01/01 02:54:23;;;;;;;15.80;6.32;;;13.30;99.90;;;;;;5062988;28;20099;-49
2023/01/01 02:57:03;;;;;;;12.75;5.50;;;13.30;99.90;;;;;;5063308;28;20045;-50
2023/01/01 03:02:59;;;;;;;10.55;4.55;;;13.50;99.90;;;;;;5064027;28;20045;-49
2023/01/01 03:09:12;;;;;;;14.80;4.43;;;13.70;99.90;;;;;;5064394;28;20472;-50
2023/01/01 03:11:55;;;;;;;11.50;4.20;;;13.60;99.90;;;;;;5063503;28;20051;-51
2023/01/01 03:14:33;;;;;;;10.55;3.58;;;13.60;99.90;;;;;;5063127;28;20053;-48
2023/01/01 03:17:06;;;;;;;10.70;4.10;;;13.60;99.90;;;;;;5064063;28;20033;-46
2023/01/01 03:19:40;;;;;;;12.32;3.70;;;13.60;99.90;;;;;;5063257;28;20484;-48
2023/01/01 03:22:12;;;;;;;14.00;4.32;;;13.70;99.90;;;;;;5062763;28;20111;-50
2023/01/01 03:24:41;;;;;;;14.30;3.72;;;13.70;99.90;;;;;;5061506;28;20056;-49
2023/01/01 03:27:30;;;;;;;13.55;3.78;;;13.70;99.90;;;;;;5063512;28;20501;-48
2023/01/01 03:30:00;;;;;;;12.32;3.30;;;13.80;99.90;;;;;;5060416;28;20037;-50
2023/01/01 03:35:21;;;;;;;9.77;3.63;;;13.70;99.90;;;;;;5063500;28;20099;-49
2023/01/01 03:37:50;;;;;;;10.35;3.42;;;13.80;99.90;;;;;;5064218;28;20036;-52
2023/01/01 03:40:18;;;;;;;9.38;3.20;;;13.80;99.90;;;;;;5059229;28;20033;-50
2023/01/01 03:42:50;;;;;;;12.52;3.40;;;13.70;99.90;;;;;;5061479;28;20105;-50
2023/01/01 03:45:18;;;;;;;12.48;3.42;;;13.60;99.90;;;;;;5060528;28;20742;-51
2023/01/01 03:47:44;;;;;;;8.23;3.13;;;13.60;99.90;;;;;;5064101;28;20055;-49
2023/01/01 03:50:11;;;;;;;11.55;3.40;;;13.60;99.90;;;;;;5060981;28;20028;-53
2023/01/01 03:52:48;;;;;;;9.57;3.17;;;13.60;99.90;;;;;;5063908;28;20438;-51
2023/01/01 03:55:42;;;;;;;8.85;2.88;;;13.60;99.90;;;;;;5061262;28;20428;-51
2023/01/01 03:58:29;;;;;;;7.20;2.90;;;13.50;99.90;;;;;;5061345;28;20495;-51
2023/01/01 04:01:03;;;;;;;8.88;2.90;;;13.60;99.90;;;;;;5060568;28;20271;-52
2023/01/01 04:03:31;;;;;;;12.85;3.45;;;13.60;99.90;;;;;;5063624;28;20028;-49
2023/01/01 04:05:57;;;;;;;9.00;2.65;;;13.70;99.90;;;;;;5061726;28;20051;-50
2023/01/01 04:08:23;;;;;;;10.60;2.92;;;13.70;99.90;;;;;;5058028;28;20037;-47
2023/01/01 04:10:56;;;;;;;8.90;2.50;;;13.60;99.90;;;;;;5058791;28;20045;-47
2023/01/01 04:13:21;;;;;;;10.35;2.83;;;13.60;99.90;;;;;;5063153;28;20079;-52
2023/01/01 04:15:47;;;;;;;10.10;2.63;;;13.50;99.90;;;;;;5062448;28;20465;-51
2023/01/01 04:18:13;;;;;;;13.52;3.13;;;13.60;99.90;;;;;;5062439;28;20432;-51
2023/01/01 04:20:39;;;;;;;9.73;2.85;;;13.60;99.90;;;;;;5062054;28;20487;-51
2023/01/01 04:23:04;;;;;;;8.77;2.63;;;13.50;99.90;;;;;;5063037;28;20036;-51
2023/01/01 04:25:31;;;;;;;9.93;2.88;;;13.70;99.90;;;;;;5062515;28;20114;-47
2023/01/01 04:27:57;;;;;;;10.00;2.72;;;13.60;99.90;;;;;;5062219;28;20089;-49
2023/01/01 04:30:23;;;;;;;12.25;3.00;;;13.80;99.90;;;;;;5060659;28;20570;-49
2023/01/01 04:32:48;;;;;;;8.38;2.22;;;13.80;99.90;;;;;;5063606;28;20031;-52
2023/01/01 04:35:14;;;;;;;6.95;2.20;;;13.70;99.90;;;;;;5061905;28;20094;-49
2023/01/01 04:37:42;;;;;;;9.45;2.65;;;13.70;99.90;;;;;;5061700;28;20043;-52
2023/01/01 04:40:09;;;;;;;9.63;2.20;;;13.70;99.90;;;;;;5062314;28;20715;-50
2023/01/01 04:42:35;;;;;;;9.95;2.60;;;13.70;99.90;;;;;;5063457;28;20036;-52
2023/01/01 04:45:01;;;;;;;7.85;2.60;;;13.70;99.90;;;;;;5061492;28;20078;-52
2023/01/01 04:47:27;;;;;;;9.35;2.47;;;13.70;99.90;;;;;;5060075;28;20033;-49
2023/01/01 04:49:53;;;;;;;9.88;2.50;;;13.70;99.90;;;;;;5061124;28;20479;-49
2023/01/01 04:52:19;;;;;;;7.70;2.28;;;13.70;99.90;;;;;;5059997;28;20043;-50
2023/01/01 04:54:45;;;;;;;9.68;2.20;;;13.60;99.90;;;;;;5061791;28;20044;-50
2023/01/01 04:57:11;;;;;;;7.82;2.33;;;13.60;99.90;;;;;;5062749;28;20040;-50
2023/01/01 04:59:36;;;;;;;10.35;2.30;;;13.50;99.90;;;;;;5061789;28;20043;-50
2023/01/01 05:02:02;;;;;;;8.48;2.00;;;13.50;99.90;;;;;;5060461;28;20032;-51
2023/01/01 05:04:28;;;;;;;11.07;2.70;;;13.60;99.90;;;;;;5060913;28;20036;-52
2023/01/01 05:06:54;;;;;;;8.75;2.35;;;13.50;99.90;;;;;;5061396;28;20425;-47
2023/01/01 05:09:19;;;;;;;6.18;1.75;;;13.50;99.90;;;;;;5059604;28;20036;-50
2023/01/01 05:11:45;;;;;;;9.30;1.92;;;13.50;99.90;;;;;;5062027;28;20037;-51
2023/01/01 05:14:11;;;;;;;7.28;1.85;;;13.40;99.90;;;;;;5061699;28;20039;-53
2023/01/01 05:16:38;;;;;;;8.00;2.22;;;13.40;99.90;;;;;;5062327;28;20036;-49
2023/01/01 05:19:05;;;;;;;7.53;1.73;;;13.40;99.90;;;;;;5061755;28;20138;-53
2023/01/01 05:21:34;;;;;;;6.80;1.52;;;13.30;99.90;;;;;;5059351;28;20111;-48
2023/01/01 05:24:03;;;;;;;7.18;1.60;;;13.30;99.90;;;;;;5059711;28;20106;-51
2023/01/01 05:26:31;;;;;;;7.22;1.90;;;13.30;99.90;;;;;;5059036;28;20131;-48
2023/01/01 05:28:58;;;;;;;8.13;1.92;;;13.20;99.90;;;;;;5063661;28;20037;-48
2023/01/01 05:31:26;;;;;;;7.05;1.90;;;13.20;99.90;;;;;;5060789;28;20037;-48
2023/01/01 05:33:53;;;;;;;6.85;1.90;;;13.10;99.90;;;;;;5058493;28;20094;-47
2023/01/01 05:36:21;;;;;;;6.32;1.63;;;13.10;99.90;;;;;;5060112;28;20566;-52
2023/01/01 05:38:47;;;;;;;7.38;1.58;;;13.00;99.90;;;;;;5060853;28;20036;-50
2023/01/01 05:41:15;;;;;;;6.15;1.40;;;13.00;99.90;;;;;;5061403;28;20036;-47
2023/01/01 05:43:41;;;;;;;6.90;1.70;;;12.90;99.90;;;;;;5060613;28;20032;-48
2023/01/01 05:46:11;;;;;;;8.82;1.67;;;12.90;99.90;;;;;;5060023;28;20175;-49
2023/01/01 05:48:37;;;;;;;5.25;1.48;;;12.90;99.90;;;;;;5058912;28;20423;-47
2023/01/01 05:51:11;;;;;;;6.03;1.50;;;12.80;99.90;;;;;;5062372;28;20097;-54
2023/01/01 05:53:37;;;;;;;;;;;12.80;99.90;;;;;;5060752;28;20071;-50
2023/01/01 05:56:03;;;;;;;7.53;1.85;;;12.70;99.90;;;;;;5059965;28;20351;-54
2023/01/01 05:58:30;;;;;;;8.75;1.77;;;12.70;99.90;;;;;;5061077;28;20033;-47
2023/01/01 06:01:24;;;;;;;9.93;1.80;;;12.70;99.90;;;;;;5062697;28;20035;-50
2023/01/01 06:03:52;;;;;;;7.10;1.38;;;12.60;99.90;;;;;;5060101;28;20048;-49
2023/01/01 06:06:20;;;;;;;6.32;1.73;;;12.60;99.90;;;;;;5058805;28;20480;-51
2023/01/01 06:08:50;;;;;;;8.68;1.92;;;12.60;99.90;;;;;;5058066;28;20073;-52
2023/01/01 06:11:17;;;;;;;6.65;1.73;;;12.60;99.90;;;;;;5059853;28;20069;-53
2023/01/01 06:13:42;;;;;;;6.75;2.00;;;12.60;99.90;;;;;;5063514;28;20380;-50
2023/01/01 06:16:09;;;;;;;7.07;1.77;;;12.60;99.90;;;;;;5064771;28;20086;-48
2023/01/01 06:18:34;;;;;;;7.32;1.70;;;12.50;99.90;;;;;;5062735;28;20041;-49
2023/01/01 06:21:10;;;;;;;7.75;2.25;;;12.50;99.90;;;;;;5062368;28;20033;-49
2023/01/01 06:23:36;;;;;;;4.53;1.83;;;12.50;99.90;;;;;;5063704;28;20971;-50
2023/01/01 06:26:10;;;;;;;8.93;1.83;;;12.50;99.90;;;;;;5063881;28;20057;-50
2023/01/01 06:28:37;;;;;;;7.15;1.83;;;12.50;99.90;;;;;;5064261;28;20044;-49
2023/01/01 06:31:04;;;;;;;9.82;2.17;;;12.50;99.90;;;;;;5062383;28;20479;-50
2023/01/01 06:33:31;;;;;;;9.50;1.70;;;12.50;99.90;;;;;;5062527;28;20119;-51
2023/01/01 06:35:57;;;;;;;9.15;1.95;;;12.40;99.90;;;;;;5065120;28;20098;-50
2023/01/01 06:38:23;;;;;;;11.07;1.92;;;12.50;99.90;;;;;;5064755;28;20036;-51
2023/01/01 06:41:03;;;;;;;10.70;1.95;;;12.40;99.90;;;;;;5065752;28;20035;-47
2023/01/01 06:43:31;;;;;;;7.88;2.20;;;12.40;99.90;;;;;;5063351;28;20036;-51
2023/01/01 06:46:20;;;;;;;8.20;1.98;;;12.40;99.90;;;;;;5064671;28;20045;-52
2023/01/01 06:48:47;;;;;;;9.60;2.25;;;12.40;99.90;;;;;;5061983;28;20039;-46
2023/01/01 06:51:16;;;;;;;7.80;2.05;;;12.30;99.90;;;;;;5064598;28;20041;-49
2023/01/01 06:53:42;;;;;;;8.25;1.73;;;12.30;99.90;;;;;;5064240;28;20445;-50
2023/01/01 06:56:08;;;;;;;7.65;2.20;;;12.30;99.90;;;;;;5063717;28;20127;-50
2023/01/01 06:58:34;;;;;;;8.88;2.00;;;12.30;99.90;;;;;;5063487;28;20025;-49
2023/01/01 07:01:10;;;;;;;10.05;1.83;;;12.20;99.90;;;;;;5063030;28;20124;-47
2023/01/01 07:03:37;;;;;;;12.55;2.30;;;12.20;99.90;;;;;;5063838;28;20130;-49
2023/01/01 07:06:03;;;;;;;7.47;2.15;;;12.30;99.90;;;;;;5065000;28;20063;-48
2023/01/01 07:08:29;;;;;;;6.57;1.80;;;12.20;99.90;;;;;;5062780;28;20123;-49
2023/01/01 07:10:56;;;;;;;11.45;2.22;;;12.20;99.90;;;;;;5063347;28;20544;-48
2023/01/01 07:13:26;;;;;;;11.75;2.08;;;12.20;99.90;;;;;;5063340;28;20044;-50
2023/01/01 07:15:52;;;;;;;12.77;2.47;;;12.20;99.90;;;;;;5060323;28;20158;-50
2023/01/01 07:18:22;;;;;;;9.25;2.25;;;12.20;99.90;;;;;;5062775;28;20091;-47
2023/01/01 07:20:53;;;;;;;8.18;1.73;;;12.10;99.90;;;;;;5066438;28;20039;-49
2023/01/01 07:23:19;;;;;;;8.10;1.77;;;12.10;99.90;;;;;;5061182;28;20067;-48
2023/01/01 07:25:45;;;;;;;9.40;1.77;;;12.10;99.90;;;;;;5061792;28;20080;-49
2023/01/01 07:28:12;;;;;;;9.73;2.00;;;12.10;99.90;;;;;;5064725;28;20079;-47
2023/01/01 07:30:37;;;;;;;8.95;1.90;;;12.10;99.90;;;;;;5063766;28;20337;-49
2023/01/01 07:33:03;;;;;;;10.45;1.75;;;12.10;99.90;;;;;;5061909;28;20044;-51
2023/01/01 07:35:29;;;;;;;11.05;2.22;;;12.00;99.90;;;;;;5061614;28;20058;-51
2023/01/01 07:37:54;;;;;;;12.35;1.92;;;12.10;99.90;;;;;;5063715;28;20036;-49
2023/01/01 07:40:20;;;;;;;9.10;1.90;;;12.00;99.90;;;;;;5062832;28;20502;-48
2023/01/01 07:42:45;;;;;;;11.15;1.90;;;12.00;99.90;;;;;;5063422;28;20030;-50
2023/01/01 07:45:12;;;;;;;9.30;1.83;;;11.90;99.90;;;;;;5063556;28;20043;-52
2023/01/01 07:47:38;;;;;;;10.43;2.28;;;11.90;99.90;;;;;;5061304;28;20094;-52
2023/01/01 07:50:04;;;;;;;11.98;2.25;;;11.90;99.90;;;;;;5061881;28;20056;-49
2023/01/01 07:52:30;;;;;;;8.90;1.92;;;11.80;99.90;;;;;;5063679;28;20068;-49
2023/01/01 07:54:55;;;;;;;9.90;2.28;;;11.90;99.90;;;;;;5061522;28;20072;-53
2023/01/01 07:57:21;;;;;;;9.02;1.67;;;11.90;99.90;;;;;;5060188;28;20036;-51
2023/01/01 07:59:47;;;;;;;9.80;2.10;;;11.90;99.90;;;;;;5062429;28;20123;-51
2023/01/01 08:02:12;;;;;;;8.63;1.98;;;11.80;99.90;;;;;;5060658;28;20449;-52
2023/01/01 08:04:38;;;;;;;7.75;1.75;;;11.80;99.90;;;;;;5062523;28;20068;-48
2023/01/01 08:07:05;;;;;;;10.82;2.17;;;11.80;99.90;;;;;;5063173;28;20043;-49
2023/01/01 08:09:30;;;;;;;11.35;2.03;;;11.80;99.90;;;;;;5062661;28;20032;-49
2023/01/01 08:11:57;;;;;;;10.40;1.75;;;11.70;99.90;;;;;;5063742;28;20046;-52
2023/01/01 08:14:26;;;;;;;11.25;1.98;;;11.70;99.90;;;;;;5061599;28;20067;-50
2023/01/01 08:16:52;;;;;;;9.40;1.85;;;11.70;99.90;;;;;;5061553;28;20643;-49
2023/01/01 08:19:17;;;;;;;14.93;2.53;;;11.70;99.90;;;;;;5061895;28;20124;-50
2023/01/01 08:21:43;;;;;;;7.78;1.70;;;11.70;99.90;;;;;;5062820;28;20487;-48
2023/01/01 08:24:09;;;;;;;12.35;2.05;;;11.60;99.90;;;;;;5060639;28;20422;-48
2023/01/01 08:26:36;;;;;;;7.50;1.75;;;11.60;99.90;;;;;;5060988;28;20053;-50
2023/01/01 08:29:05;;;;;;;10.68;2.10;;;11.60;99.90;;;;;;5061649;28;20036;-48
2023/01/01 08:31:32;;;;;;;11.32;1.90;;;11.60;99.90;;;;;;5060694;28;20055;-48
2023/01/01 08:33:57;;;;;;;12.27;2.22;;;11.50;99.90;;;;;;5061423;28;20101;-48
2023/01/01 08:36:23;;;;;;;8.73;1.92;;;11.50;99.90;;;;;;5059805;28;20029;-49
2023/01/01 08:38:49;;;;;;;9.73;1.90;;;11.50;99.90;;;;;;5062529;28;20029;-50
2023/01/01 08:41:15;;;;;;;9.35;1.65;;;11.50;99.90;;;;;;5059520;28;20040;-49
2023/01/01 08:43:41;;;;;;;10.07;1.98;;;11.50;99.90;;;;;;5063221;28;20527;-51
2023/01/01 08:46:06;;;;;;;9.95;1.75;;;11.50;99.90;;;;;;5052130;28;20048;-52
2023/01/01 08:48:32;;;;;;;10.48;2.22;;;11.50;99.90;;;;;;5049318;28;20063;-51
2023/01/01 08:51:00;;;;;;;11.30;1.95;;;11.50;99.90;;;;;;5053702;28;20111;-51
2023/01/01 08:53:27;;;;;;;10.80;1.95;;;11.50;99.90;;;;;;5056484;28;20054;-48
2023/01/01 08:56:01;;;;;;;10.95;2.10;;;11.40;99.90;;;;;;5061503;28;20036;-49
2023/01/01 08:58:26;;;;;;;10.43;2.25;;;11.40;99.90;;;;;;5061358;28;20468;-53
2023/01/01 09:00:53;;;;;;;13.82;1.85;;;11.40;99.90;;;;;;5063049;28;20056;-47
2023/01/01 09:03:18;;;;;;;11.55;2.10;;;11.40;99.90;;;;;;5061535;28;20041;-48
2023/01/01 09:05:44;;;;;;;13.52;2.13;;;11.40;99.90;;;;;;5061815;28;20340;-49
2023/01/01 09:08:14;;;;;;;14.90;2.33;;;11.40;99.90;;;;;;5060282;28;20102;-50
2023/01/01 09:10:42;;;;;;;11.48;1.80;;;11.40;99.90;;;;;;5059743;28;20763;-51
2023/01/01 09:13:08;;;;;;;10.68;2.28;;;11.40;99.90;;;;;;5059613;28;20049;-51
2023/01/01 09:15:34;;;;;;;11.00;2.40;;;11.40;99.90;;;;;;5060837;28;20045;-48
2023/01/01 09:18:00;;;;;;;9.82;1.80;;;11.40;99.90;;;;;;5059657;28;20035;-49
2023/01/01 09:20:26;;;;;;;9.85;1.88;;;11.40;99.90;;;;;;5061816;28;20027;-52
2023/01/01 09:22:51;;;;;;;11.48;1.90;;;11.50;99.90;;;;;;5061463;28;20467;-52
2023/01/01 09:25:18;;;;;;;8.70;1.77;;;11.40;99.90;;;;;;5060342;28;20711;-51
2023/01/01 09:27:44;;;;;;;12.57;1.92;;;11.40;99.90;;;;;;5059103;28;20505;-47
2023/01/01 09:30:10;;;;;;;11.20;2.67;;;11.50;99.90;;;;;;5059927;28;21485;-51
2023/01/01 09:32:36;;;;;;;16.77;6.70;;;11.40;99.90;;;;;;5060404;28;20025;-51
2023/01/01 09:35:02;;;;;;;26.15;15.38;;;11.40;99.90;;;;;;5058868;28;20033;-50
2023/01/01 09:37:28;;;;;;;19.98;11.98;;;11.40;99.90;;;;;;5057560;28;20036;-51
2023/01/01 09:39:53;;;;;;;19.58;9.40;;;11.50;99.90;;;;;;5056551;28;20039;-50
2023/01/01 09:42:44;;;;;;;16.83;9.32;;;11.50;99.90;;;;;;5058592;28;20395;-48
2023/01/01 09:45:28;;;;;;;14.35;6.68;;;11.50;99.90;;;;;;5059840;28;20044;-51
2023/01/01 09:48:05;;;;;;;16.27;4.88;;;11.50;99.90;;;;;;5058608;28;20517;-47
2023/01/01 09:50:40;;;;;;;11.13;3.28;;;11.60;99.90;;;;;;5059305;28;20036;-51
2023/01/01 09:53:12;;;;;;;15.07;4.10;;;11.70;99.90;;;;;;5058783;28;20704;-49
2023/01/01 09:55:41;;;;;;;12.18;3.53;;;11.70;99.90;;;;;;5056255;28;20028;-48
2023/01/01 09:58:10;;;;;;;11.55;2.30;;;11.70;99.90;;;;;;5057472;28;20460;-50
2023/01/01 10:00:40;;;;;;;9.43;1.92;;;11.70;99.90;;;;;;5058008;28;20036;-50
2023/01/01 10:03:14;;;;;;;14.90;6.13;;;11.70;99.90;;;;;;5060255;28;20043;-48
2023/01/01 10:05:56;;;;;;;16.60;7.53;;;11.60;99.90;;;;;;5058436;28;20028;-47
2023/01/01 10:08:30;;;;;;;13.90;2.80;;;11.60;99.90;;;;;;5059231;28;20108;-49
2023/01/01 10:11:27;;;;;;;9.13;1.83;;;11.60;99.90;;;;;;5057661;28;20039;-50
2023/01/01 10:13:56;;;;;;;11.55;2.00;;;11.60;99.90;;;;;;5057228;28;20044;-49
2023/01/01 10:16:38;;;;;;;12.68;1.92;;;11.60;99.90;;;;;;5059434;28;20032;-48
2023/01/01 10:19:20;;;;;;;11.27;2.15;;;11.60;99.90;;;;;;5058444;28;20076;-50
2023/01/01 10:21:48;;;;;;;10.07;1.92;;;11.60;99.90;;;;;;5058815;28;20499;-49
2023/01/01 10:24:42;;;;;;;12.10;2.15;;;11.70;99.90;;;;;;5057935;28;20044;-48
2023/01/01 10:27:24;;;;;;;10.02;2.42;;;11.90;99.90;;;;;;5056009;28;20905;-52
2023/01/01 10:29:51;;;;;;;11.75;2.20;;;12.10;99.90;;;;;;5057705;28;20049;-53
2023/01/01 10:32:27;;;;;;;14.30;2.30;;;12.40;99.90;;;;;;5057263;28;20048;-48
2023/01/01 10:34:54;;;;;;;11.82;2.00;;;12.40;99.90;;;;;;5074624;28;20443;-50
2023/01/01 10:37:21;;;;;;;14.55;2.40;;;12.60;99.90;;;;;;5056798;28;20032;-50
2023/01/01 10:39:47;;;;;;;10.05;2.17;;;12.50;99.90;;;;;;5059012;28;20036;-50
2023/01/01 10:42:14;;;;;;;11.98;2.03;;;12.50;99.90;;;;;;5059210;28;20064;-50
2023/01/01 10:44:41;;;;;;;10.57;1.85;;;12.50;99.90;;;;;;5058350;28;20048;-52
2023/01/01 10:47:27;;;;;;;12.75;2.13;;;12.50;99.90;;;;;;5058549;28;20028;-50
2023/01/01 10:50:06;;;;;;;13.82;2.70;;;12.50;99.90;;;;;;5058789;28;20028;-48
2023/01/01 10:52:36;;;;;;;9.95;2.05;;;12.60;99.90;;;;;;5048163;28;20090;-53
2023/01/01 10:55:03;;;;;;;13.13;2.03;;;12.60;99.90;;;;;;5054372;28;20079;-50
2023/01/01 10:57:39;;;;;;;10.98;2.28;;;12.60;99.90;;;;;;5057113;28;20036;-52
2023/01/01 11:00:21;;;;;;;12.10;2.45;;;12.70;99.90;;;;;;5055708;28;20064;-51
2023/01/01 11:02:47;;;;;;;14.13;2.30;;;12.60;99.90;;;;;;5062376;28;20040;-52
2023/01/01 11:05:18;;;;;;;12.65;2.65;;;12.70;99.90;;;;;;5062447;28;20040;-51
2023/01/01 11:07:44;;;;;;;12.05;2.47;;;12.90;99.90;;;;;;5060259;28;20041;-52
2023/01/01 11:10:24;;;;;;;13.55;2.65;;;13.00;99.90;;;;;;5061549;28;20491;-48
2023/01/01 11:12:52;;;;;;;10.07;1.95;;;13.00;99.90;;;;;;5057635;28;20131;-50
2023/01/01 11:15:43;;;;;;;11.43;2.28;;;13.10;99.90;;;;;;5056330;28;20048;-50
2023/01/01 11:18:20;;;;;;;8.80;2.08;;;13.30;99.90;;;;;;5057867;28;20059;-51
2023/01/01 11:20:57;;;;;;;11.27;2.30;;;13.20;99.90;;;;;;5059327;28;20044;-50
2023/01/01 11:23:32;;;;;;;13.35;2.70;;;13.10;99.90;;;;;;5060065;28;20095;-49
2023/01/01 11:26:17;;;;;;;14.02;2.88;;;13.10;99.90;;;;;;5059002;28;20056;-48
2023/01/01 11:29:02;;;;;;;14.77;2.67;;;13.00;99.90;;;;;;5058969;28;20388;-49
2023/01/01 11:31:34;;;;;;;16.23;3.25;;;12.80;99.90;;;;;;5060997;28;20033;-50
2023/01/01 11:34:02;;;;;;;15.80;2.65;;;12.80;99.90;;;;;;5061544;28;20040;-49
2023/01/01 11:36:33;;;;;;;12.15;2.38;;;12.70;99.90;;;;;;5057518;28;20032;-52
2023/01/01 11:39:23;;;;;;;12.73;2.38;;;12.70;99.90;;;;;;5057345;28;20117;-47
2023/01/01 11:41:52;;;;;;;13.07;2.67;;;12.70;99.90;;;;;;5059422;28;20120;-50
2023/01/01 11:44:42;;;;;;;12.43;2.00;;;12.80;99.90;;;;;;5056491;28;20522;-50
2023/01/01 11:47:27;;;;;;;11.50;2.00;;;12.80;99.90;;;;;;5054290;28;20786;-49
2023/01/01 11:50:28;;;;;;;13.60;2.45;;;12.90;99.90;;;;;;5055589;28;20036;-49
2023/01/01 11:52:57;;;;;;;12.65;2.50;;;12.80;99.90;;;;;;5053443;28;20064;-48
2023/01/01 11:55:41;;;;;;;9.48;2.35;;;13.10;99.90;;;;;;5053335;28;20053;-49
2023/01/01 11:58:44;;;;;;;13.73;2.87;;;13.30;99.90;;;;;;5052111;28;20048;-51
2023/01/01 12:01:28;;;;;;;12.55;2.58;;;13.30;99.90;;;;;;5052047;28;20431;-49
2023/01/01 12:04:27;;;;;;;11.70;2.67;;;13.10;99.90;;;;;;5060588;28;20037;-47
2023/01/01 12:07:05;;;;;;;9.85;1.88;;;13.00;99.90;;;;;;5058956;28;20033;-51
2023/01/01 12:10:03;;;;;;;10.40;2.15;;;12.80;99.90;;;;;;5059908;28;20032;-49
2023/01/01 12:12:45;;;;;;;12.57;3.05;;;12.70;99.90;;;;;;5058430;28;20032;-50
2023/01/01 12:15:37;;;;;;;11.90;2.60;;;12.60;99.90;;;;;;5059752;28;20097;-50
2023/01/01 12:18:13;;;;;;;11.20;2.40;;;12.50;99.90;;;;;;5057491;28;20090;-50
2023/01/01 12:21:02;;;;;;;15.25;2.33;;;12.50;99.90;;;;;;5060451;28;20059;-51
2023/01/01 12:23:28;;;;;;;14.38;2.55;;;12.50;99.90;;;;;;5058551;28;20520;-50
2023/01/01 12:26:18;;;;;;;13.98;2.72;;;12.40;99.90;;;;;;5057831;28;20109;-49
2023/01/01 12:29:08;;;;;;;14.38;2.40;;;12.40;99.90;;;;;;5060814;28;20547;-51
2023/01/01 12:31:56;;;;;;;10.68;2.50;;;12.40;99.90;;;;;;5061547;28;22043;-50
2023/01/01 12:34:46;;;;;;;11.25;2.05;;;12.40;99.90;;;;;;5059660;28;20055;-49
2023/01/01 12:37:37;;;;;;;11.32;2.08;;;12.40;99.90;;;;;;5061904;28;20062;-49
2023/01/01 12:40:33;;;;;;;14.68;2.55;;;12.40;99.90;;;;;;5058793;28;20125;-49
2023/01/01 12:43:15;;;;;;;10.48;2.72;;;12.40;99.90;;;;;;5037955;28;20055;-48
2023/01/01 12:46:10;;;;;;;12.60;2.63;;;12.40;99.90;;;;;;5060930;28;20537;-48
2023/01/01 12:49:07;;;;;;;13.63;2.58;;;12.30;99.90;;;;;;5061034;28;20248;-47
2023/01/01 12:51:39;;;;;;;16.75;3.10;;;12.30;99.90;;;;;;5061142;28;20468;-49
2023/01/01 12:54:20;;;;;;;15.80;2.97;;;12.30;99.90;;;;;;5060083;28;20040;-51
2023/01/01 12:57:09;;;;;;;15.25;2.70;;;12.20;99.90;;;;;;5059850;28;20037;-51
2023/01/01 12:59:41;;;;;;;14.98;3.13;;;12.20;99.90;;;;;;5061994;28;20123;-50
2023/01/01 13:02:19;;;;;;;12.27;2.55;;;12.20;99.90;;;;;;5062362;28;20383;-48
2023/01/01 13:04:48;;;;;;;15.05;3.38;;;12.20;99.90;;;;;;5060200;28;20028;-48
2023/01/01 13:07:21;;;;;;;11.07;2.45;;;12.20;99.90;;;;;;5061444;28;20048;-52
2023/01/01 13:09:47;;;;;;;15.63;3.22;;;12.10;99.90;;;;;;5054785;28;20071;-50
2023/01/01 13:12:24;;;;;;;11.07;2.67;;;12.10;99.90;;;;;;5060474;28;20076;-49